Latest Weather Observations for Laverton

IDW60801

Issued at 8:33 am WST Monday 18 October 2021 (issued every 10 minutes, with the page automatically refreshed every 10 minutes)

About weather observations | Map of weather stations | Latest weather observations for WA | Other Formats
Station Details ID: 012305 Name: LAVERTON AERO Lat: -28.61 Lon: 122.42 Height: 464.3 m
Data from the previous 72 hours. | See also: Recent months at Laverton
Date/Time
WST
Temp
°C
App
Temp
°C
Dew
Point
°C
Rel
Hum
%
Delta-T
°C
Wind Press
QNH
hPa
Press
MSL
hPa
Rain since
9am
mm
Dir  Spd
km/h
Gust
km/h
Spd
kts
Gust
kts
18/08:30am 30.1 24.7 1.5 16 14.4 NE 19 26 10 14 1010.6 1008.5 0.0
18/08:00am 29.1 23.9 2.4 18 13.5 NE 19 24 10 13 1010.6 1008.5 0.0
18/07:30am 27.6 23.2 2.6 20 12.6 NE 15 22 8 12 1010.4 1008.3 0.0
18/07:00am 24.7 21.0 2.2 23 11.0 ENE 11 15 6 8 1010.2 1008.1 0.0
18/06:30am 21.5 17.8 2.2 28 9.2 ENE 11 13 6 7 1010.0 1007.9 0.0
18/06:00am 18.0 14.5 1.1 32 7.7 E 9 11 5 6 1009.9 1007.8 0.0
18/05:30am 17.0 13.5 1.0 34 7.2 ESE 9 11 5 6 1009.4 1007.4 0.0
18/05:00am 16.5 13.0 1.0 35 7.0 ESE 9 11 5 6 1009.0 1006.9 0.0
18/04:30am 16.8 13.2 0.5 33 7.3 E 9 11 5 6 1008.7 1006.6 0.0
18/04:00am 16.6 13.3 0.3 33 7.2 ESE 7 9 4 5 1008.4 1006.3 0.0
18/03:30am 17.1 13.9 0.7 33 7.4 ESE 7 9 4 5 1008.3 1006.2 0.0
18/03:00am 18.0 14.6 -0.3 29 8.1 E 7 9 4 5 1008.1 1006.0 0.0
18/02:30am 17.6 13.5 -0.2 30 7.9 E 11 13 6 7 1007.8 1005.7 0.0
18/02:00am 17.9 13.0 -0.4 29 8.1 ENE 15 15 8 8 1007.7 1005.6 0.0
18/01:30am 18.5 14.0 -0.3 28 8.4 ENE 13 17 7 9 1007.7 1005.6 0.0
18/01:00am 18.3 13.9 0.4 30 8.1 E 13 17 7 9 1007.6 1005.5 0.0
18/12:30am 18.1 14.1 0.7 31 7.9 E 11 15 6 8 1008.1 1006.0 0.0
18/12:00am 18.6 15.3 0.2 29 8.3 E 7 7 4 4 1008.5 1006.4 0.0
 
Date/Time
WST
Temp
°C
App
Temp
°C
Dew
Point
°C
Rel
Hum
%
Delta-T
°C
Wind Press
QNH
hPa
Press
MSL
hPa
Rain since
9am
mm
Dir  Spd
km/h
Gust
km/h
Spd
kts
Gust
kts
17/11:30pm 18.8 15.5 0.4 29 8.3 E 7 9 4 5 1008.9 1006.8 0.0
17/11:00pm 19.2 15.2 0.3 28 8.6 E 11 15 6 8 1009.1 1007.0 0.0
17/10:30pm 20.1 16.5 0.5 27 9.0 E 9 11 5 6 1009.3 1007.3 0.0
17/10:00pm 21.0 17.3 0.2 25 9.6 E 9 11 5 6 1009.7 1007.6 0.0
17/09:30pm 21.2 18.5 0.4 25 9.6 ESE 4 7 2 4 1009.9 1007.8 0.0
17/09:00pm 21.9 17.5 0.4 24 10.0 E 13 15 7 8 1010.2 1008.1 0.0
17/08:30pm 22.9 21.1 1.3 24 10.3 CALM 0 0 0 0 1010.0 1007.9 0.0
17/08:00pm 23.9 22.2 2.1 24 10.6 CALM 0 0 0 0 1009.8 1007.7 0.0
17/07:30pm 25.8 21.8 -1.9 16 12.7 NW 9 9 5 5 1009.4 1007.4 0.0
17/07:00pm 26.3 22.7 -2.4 15 13.1 NW 7 9 4 5 1009.1 1007.0 0.0
17/06:30pm 28.2 23.8 -2.8 13 14.2 NW 11 11 6 6 1008.8 1006.7 0.0
17/06:00pm 29.5 25.0 -2.9 12 15.0 WNW 11 17 6 9 1008.4 1006.3 0.0
17/05:30pm 30.6 25.0 -3.2 11 15.7 WNW 17 22 9 12 1008.2 1006.1 0.0
17/05:00pm 31.3 27.3 -2.6 11 16.0 WNW 9 17 5 9 1008.0 1005.9 0.0
17/04:30pm 31.4 26.4 -1.4 12 15.8 WNW 15 20 8 11 1007.9 1005.8 0.0
17/04:00pm 31.2 26.7 -0.5 13 15.5 WNW 13 20 7 11 1007.9 1005.8 0.0
17/03:30pm 31.1 27.3 -0.5 13 15.4 WSW 9 19 5 10 1007.9 1005.8 0.0
17/03:00pm 30.7 27.0 0.2 14 15.0 W 9 22 5 12 1008.1 1006.0 0.0
17/02:30pm 30.9 25.9 1.3 15 14.9 W 17 24 9 13 1008.3 1006.2 0.0
17/02:00pm 30.5 25.4 1.0 15 14.7 W 17 28 9 15 1008.7 1006.6 0.0
17/01:30pm 29.6 26.2 2.0 17 13.9 S 9 20 5 11 1008.9 1006.8 0.0
17/01:00pm 29.9 25.3 3.8 19 13.6 W 17 28 9 15 1009.4 1007.4 0.0
17/12:30pm 29.1 26.2 4.6 21 12.9 NW 9 17 5 9 1009.8 1007.7 0.0
17/12:00pm 28.7 24.3 2.8 19 13.2 WNW 15 28 8 15 1010.2 1008.1 0.0
17/11:30am 27.6 23.8 4.0 22 12.2 WSW 13 22 7 12 1010.6 1008.5 0.0
17/11:00am 27.3 23.2 4.4 23 11.9 WSW 15 26 8 14 1011.0 1008.9 0.0
17/10:30am 26.6 23.6 7.6 30 10.4 WSW 13 22 7 12 1011.4 1009.4 0.0
17/10:00am 25.4 23.8 10.1 38 8.7 WSW 9 17 5 9 1011.6 1009.6 0.0
17/09:30am 23.9 22.0 10.6 43 7.5 SW 11 17 6 9 1011.6 1009.6 0.0
17/09:00am 22.7 21.6 12.0 50 6.2 WSW 9 13 5 7 1011.7 1009.7 3.0
17/08:30am 21.7 20.7 12.3 55 5.4 WNW 9 13 5 7 1011.7 1009.7 3.0
17/08:00am 20.1 19.4 12.1 60 4.6 W 7 11 4 6 1011.5 1009.5 3.0
17/07:30am 19.0 18.5 12.7 67 3.6 NW 7 11 4 6 1011.4 1009.4 3.0
17/07:00am 17.4 16.5 12.5 73 2.8 N 9 13 5 7 1011.2 1009.2 3.0
17/06:30am 15.5 15.9 12.6 83 1.6 ENE 2 6 1 3 1011.1 1009.1 3.0
17/06:00am 13.3 12.8 12.2 93 0.6 E 6 7 3 4 1010.9 1008.8 3.0
17/05:30am 12.2 11.1 11.9 98 0.2 ESE 9 13 5 7 1010.6 1008.5 3.0
17/05:00am 12.0 12.5 11.5 97 0.3 CALM 0 0 0 0 1010.4 1008.3 3.0
17/04:30am 12.1 12.6 11.6 97 0.3 CALM 0 2 0 1 1010.0 1007.9 3.0
17/04:00am 12.0 11.3 11.4 96 0.3 N 6 7 3 4 1009.8 1007.7 3.0
17/03:30am 12.3 12.3 11.2 93 0.6 N 2 6 1 3 1009.5 1007.5 3.0
17/03:00am 12.4 11.1 11.3 93 0.6 N 9 9 5 5 1009.2 1007.2 3.0
17/02:30am 12.8 11.9 11.2 90 0.9 N 7 9 4 5 1009.3 1007.3 3.0
17/02:00am 13.6 12.9 11.5 87 1.1 N 6 6 3 3 1009.5 1007.5 3.0
17/01:30am 14.6 14.3 11.4 81 1.8 NE 4 11 2 6 1009.8 1007.7 3.0
17/01:00am 15.4 14.1 11.4 77 2.2 ENE 9 11 5 6 1009.8 1007.7 3.0
17/12:30am 15.8 13.1 11.6 76 2.3 E 17 20 9 11 1009.5 1007.5 3.0
17/12:00am 16.0 13.7 11.8 76 2.3 SE 15 19 8 10 1009.7 1007.6 3.0
 
Date/Time
WST
Temp
°C
App
Temp
°C
Dew
Point
°C
Rel
Hum
%
Delta-T
°C
Wind Press
QNH
hPa
Press
MSL
hPa
Rain since
9am
mm
Dir  Spd
km/h
Gust
km/h
Spd
kts
Gust
kts
16/11:30pm 16.2 14.6 11.6 74 2.5 NE 11 15 6 8 1009.9 1007.8 3.0
16/11:00pm 16.0 14.9 11.8 76 2.3 NE 9 13 5 7 1010.1 1008.0 3.0
16/10:30pm 16.3 14.7 11.7 74 2.6 ENE 11 15 6 8 1010.6 1008.5 3.0
16/10:00pm 17.0 15.8 11.5 70 3.1 E 9 13 5 7 1010.9 1008.8 3.0
16/09:30pm 17.6 15.5 11.2 66 3.5 ESE 13 17 7 9 1011.1 1009.1 3.0
16/09:00pm 18.6 16.8 10.7 60 4.4 E 11 17 6 9 1011.3 1009.3 3.0
16/08:30pm 19.2 17.1 11.0 59 4.6 ENE 13 20 7 11 1011.3 1009.3 3.0
16/08:00pm 19.0 17.0 11.6 62 4.2 NNE 13 19 7 10 1010.8 1008.7 3.0
16/07:30pm 20.1 15.9 9.9 52 5.6 NNE 22 33 12 18 1010.3 1008.2 3.0
16/07:00pm 21.1 18.0 8.7 45 6.7 NE 15 19 8 10 1009.4 1007.4 3.0
16/06:30pm 22.0 18.9 8.9 43 7.1 NE 15 19 8 10 1008.9 1006.8 3.0
16/06:00pm 23.0 20.7 9.0 41 7.7 NE 11 13 6 7 1008.6 1006.5 3.0
16/05:30pm 24.0 21.7 7.6 35 8.8 NE 9 13 5 7 1008.4 1006.3 3.0
16/05:00pm 24.0 22.2 8.0 36 8.7 NE 7 11 4 6 1008.4 1006.3 3.0
16/04:30pm 23.4 21.8 8.7 39 8.0 SE 7 13 4 7 1008.3 1006.2 3.0
16/04:00pm 23.2 20.7 9.6 42 7.6 S 13 17 7 9 1008.2 1006.1 3.0
16/03:30pm 23.3 21.4 10.4 44 7.3 S 11 15 6 8 1008.3 1006.2 2.8
16/03:00pm 22.3 19.9 10.1 46 6.8 SSE 13 17 7 9 1008.5 1006.4 2.8
16/02:30pm 20.7 18.4 12.9 61 4.5 ESE 17 22 9 12 1009.1 1007.0 2.8
16/02:00pm 19.5 17.1 12.8 65 3.9 E 17 26 9 14 1009.7 1007.6 2.8
16/01:30pm 16.9 13.2 13.8 82 1.8 SSW 26 44 14 24 1010.2 1008.1 2.8
16/01:21pm 16.6 10.9 14.2 86 1.4 SW 37 50 20 27 1011.1 1009.1 2.8
16/01:12pm 16.6 11.4 14.6 88 1.2 WSW 35 46 19 25 1012.3 1010.2 2.4
16/01:00pm 16.8 11.3 14.8 88 1.2 W 37 56 20 30 1013.1 1011.1 1.4
16/12:55pm 17.0 10.7 14.6 86 1.4 W 41 59 22 32 1012.8 1010.7 1.0
16/12:50pm 17.1 10.2 14.4 84 1.6 W 44 59 24 32 1012.6 1010.5 0.8
16/12:43pm 17.7 9.5 14.0 79 2.2 WNW 50 74 27 40 1012.7 1010.6 0.6
16/12:40pm 17.8 8.8 13.9 78 2.3 WNW 54 89 29 48 1012.5 1010.4 0.4
16/12:30pm 20.0 11.1 11.8 59 4.7 WNW 50 89 27 48 1011.4 1009.4 0.2
16/12:29pm 20.4 12.1 11.3 56 5.1 WNW 46 89 25 48 1011.2 1009.2 0.2
16/12:28pm 20.8 12.7 10.9 53 5.5 WNW 44 89 24 48 1011.0 1008.9 0.2
16/12:27pm 21.8 14.6 10.6 49 6.3 WNW 39 89 21 48 1010.8 1008.7 0.2
16/12:26pm 23.6 17.2 9.2 40 7.9 NW 33 67 18 36 1010.6 1008.5 0.2
16/12:25pm 24.1 17.8 8.9 38 8.4 NW 32 67 17 36 1010.5 1008.4 0.0
16/12:23pm 23.5 17.0 6.3 33 9.0 NW 30 67 16 36 1010.1 1008.0 0.0
16/12:21pm 26.8 20.7 6.8 28 10.8 NW 28 54 15 29 1010.0 1007.9 0.0
16/12:20pm 27.7 21.2 2.7 20 12.6 NW 26 39 14 21 1009.9 1007.8 0.0
16/12:00pm 28.5 22.1 1.1 17 13.5 WNW 24 32 13 17 1009.3 1007.3 0.0
16/11:30am 29.2 23.2 0.8 16 14.0 NNW 22 35 12 19 1009.7 1007.6 0.0
16/11:00am 29.3 21.4 -1.9 13 14.7 NNW 30 41 16 22 1010.4 1008.3 0.0
16/10:30am 27.2 18.8 -5.8 11 14.2 N 30 44 16 24 1011.1 1009.1 0.0
16/10:00am 25.8 17.7 -6.9 11 13.7 N 28 35 15 19 1011.7 1009.7 0.0
16/09:30am 26.0 18.1 -4.5 13 13.3 N 28 35 15 19 1011.7 1009.7 0.0
16/09:00am 25.5 18.3 -2.1 16 12.6 N 26 33 14 18 1011.7 1009.7 0.0
16/08:30am 24.1 16.5 -2.4 17 11.9 N 28 35 15 19 1011.7 1009.7 0.0
16/08:00am 23.9 16.4 -4.3 15 12.2 N 26 41 14 22 1011.8 1009.8 0.0
16/07:30am 22.5 15.2 -6.3 14 11.8 N 24 33 13 18 1011.8 1009.8 0.0
16/07:00am 20.9 14.4 -5.8 16 10.9 NNE 20 26 11 14 1012.0 1009.9 0.0
16/06:30am 19.8 13.4 -5.2 18 10.2 NNE 20 24 11 13 1011.7 1009.7 0.0
16/06:00am 18.6 13.2 -4.1 21 9.4 NNE 15 20 8 11 1012.1 1010.0 0.0
16/05:30am 18.1 12.8 -3.9 22 9.1 NNE 15 19 8 10 1012.1 1010.0 0.0
16/05:00am 18.2 12.1 -3.8 22 9.1 NNE 19 22 10 12 1011.8 1009.8 0.0
16/04:30am 19.0 12.3 -3.8 21 9.5 NNE 22 30 12 16 1011.6 1009.6 0.0
16/04:00am 19.2 12.6 -3.6 21 9.6 NNE 22 28 12 15 1011.3 1009.3 0.0
16/03:30am 19.2 11.8 -3.6 21 9.5 NE 26 32 14 17 1011.4 1009.4 0.0
16/03:00am 18.8 12.2 -3.3 22 9.3 NE 22 30 12 16 1011.2 1009.2 0.0
16/02:30am 19.1 12.5 -3.1 22 9.4 NE 22 30 12 16 1011.2 1009.2 0.0
16/02:00am 19.5 11.7 -3.4 21 9.7 NE 28 37 15 20 1011.4 1009.4 0.0
16/01:30am 19.8 12.4 -3.8 20 9.9 ENE 26 37 14 20 1011.4 1009.4 0.0
16/01:00am 19.9 12.0 -4.4 19 10.1 ENE 28 35 15 19 1011.7 1009.7 0.0
16/12:30am 19.9 12.6 -5.8 17 10.4 ENE 24 32 13 17 1012.2 1010.1 0.0
16/12:00am 19.9 12.6 -6.6 16 10.5 NE 24 32 13 17 1012.7 1010.6 0.0
 
Date/Time
WST
Temp
°C
App
Temp
°C
Dew
Point
°C
Rel
Hum
%
Delta-T
°C
Wind Press
QNH
hPa
Press
MSL
hPa
Rain since
9am
mm
Dir  Spd
km/h
Gust
km/h
Spd
kts
Gust
kts
15/11:30pm 20.4 13.8 -7.1 15 10.8 NE 20 28 11 15 1012.8 1010.7 0.0
15/11:00pm 20.9 14.5 -6.7 15 11.0 NE 19 24 10 13 1013.0 1011.0 0.0
15/10:30pm 22.2 15.7 -7.5 13 11.8 ENE 19 26 10 14 1013.3 1011.3 0.0
15/10:00pm 22.1 15.7 -6.6 14 11.6 ENE 19 24 10 13 1013.4 1011.4 0.0
15/09:30pm 22.2 15.9 -5.6 15 11.5 ENE 19 24 10 13 1013.4 1011.4 0.0
15/09:00pm 22.5 16.0 -6.3 14 11.8 ENE 20 28 11 15 1013.4 1011.4 0.0
15/08:30pm 23.0 16.1 -5.9 14 12.0 E 22 28 12 15 1013.2 1011.2 0.0
15/08:00pm 22.9 17.0 -6.0 14 11.9 E 17 19 9 10 1013.8 1011.8 0.0
15/07:30pm 23.8 18.6 -6.2 13 12.5 ENE 13 17 7 9 1013.9 1011.9 0.0
15/07:00pm 25.0 19.4 -6.3 12 13.1 ENE 15 19 8 10 1013.7 1011.7 0.0
15/06:30pm 26.0 20.4 -6.7 11 13.7 ENE 15 20 8 11 1013.4 1011.4 0.0
15/06:00pm 27.1 21.4 -7.1 10 14.4 E 15 17 8 9 1013.1 1011.1 0.0
15/05:30pm 27.4 21.8 -6.9 10 14.5 ENE 15 24 8 13 1013.0 1011.0 0.0
15/05:00pm 28.1 22.5 -6.3 10 14.8 NE 15 20 8 11 1012.9 1010.8 0.0
15/04:30pm 28.1 22.1 -6.3 10 14.8 ESE 17 24 9 13 1012.6 1010.5 0.0
15/04:00pm 28.8 23.1 -7.2 9 15.4 E 15 24 8 13 1012.7 1010.6 0.0
15/03:30pm 28.1 22.9 -6.3 10 14.8 N 13 20 7 11 1013.0 1011.0 0.0
15/03:00pm 28.6 23.3 -7.3 9 15.3 NE 13 30 7 16 1013.0 1011.0 0.0
15/02:30pm 27.6 23.2 -5.5 11 14.4 ESE 9 17 5 9 1013.4 1011.4 0.0
15/02:00pm 27.1 21.4 -7.1 10 14.4 N 15 22 8 12 1013.8 1011.8 0.0
15/01:30pm 26.9 21.7 -6.0 11 14.1 NNW 13 24 7 13 1014.6 1012.5 0.0
15/01:00pm 26.2 21.8 -5.4 12 13.6 NE 9 24 5 13 1015.0 1013.0 0.0
15/12:30pm 25.7 20.7 -4.7 13 13.2 N 13 20 7 11 1015.6 1013.6 0.0
15/12:00pm 25.7 20.1 -2.8 15 12.8 NNW 17 28 9 15 1016.2 1014.2 0.0
15/11:30am 25.2 20.1 -1.6 17 12.3 NNE 15 30 8 16 1016.7 1014.6 0.0
15/11:00am 24.1 18.4 -0.9 19 11.5 NNE 19 26 10 14 1017.2 1015.2 0.0
15/10:30am 23.4 17.6 -0.1 21 10.9 NNE 20 28 11 15 1017.8 1015.8 0.0
15/10:00am 22.4 16.2 -0.3 22 10.4 NE 22 32 12 17 1017.9 1015.9 0.0
15/09:30am 21.3 14.5 0.5 25 9.6 N 26 32 14 17 1018.3 1016.3 0.0
15/09:00am 20.5 13.6 0.4 26 9.2 NNE 26 35 14 19 1018.5 1016.5 0.0

Other formats

Comma delimited format used in spreadsheet applications
http://www.bom.gov.au/fwo/IDW60801/IDW60801.94449.axf

JavaScript Object Notation format (JSON) in row-major order
http://www.bom.gov.au/fwo/IDW60801/IDW60801.94449.json

Data quality

Most of these data are generated automatically and are frequently updated. Quality checks on data are not normally performed. It is possible for incorrect values to appear. Refer to information at About Latest Weather Observations and please check the disclaimer before using these data.